createdAt,value
2023-04-09T00:01:48.578Z,2.64
2023-04-09T00:04:51.335Z,2.60
2023-04-09T00:07:54.360Z,2.58
2023-04-09T00:11:00.007Z,2.54
2023-04-09T00:14:02.701Z,2.58
2023-04-09T00:17:05.536Z,2.56
2023-04-09T00:20:08.916Z,2.54
2023-04-09T00:23:12.958Z,2.48
2023-04-09T00:26:15.843Z,2.50
2023-04-09T00:29:19.060Z,2.55
2023-04-09T00:32:21.776Z,2.56
2023-04-09T00:35:24.733Z,2.63
2023-04-09T00:38:27.517Z,2.58
2023-04-09T00:41:30.454Z,2.71
2023-04-09T00:44:33.406Z,2.70
2023-04-09T00:47:36.544Z,2.68
2023-04-09T00:50:39.578Z,2.62
2023-04-09T00:53:44.240Z,2.58
2023-04-09T00:56:47.336Z,2.57
2023-04-09T00:59:50.029Z,2.56
2023-04-09T01:02:53.560Z,2.51
2023-04-09T01:06:15.403Z,2.48
2023-04-09T01:09:23.842Z,2.46
2023-04-09T01:12:34.609Z,2.45
2023-04-09T01:15:42.326Z,2.39
2023-04-09T01:19:00.316Z,2.33
2023-04-09T01:22:03.455Z,2.30
2023-04-09T01:25:30.676Z,2.30
2023-04-09T01:28:34.355Z,2.29
2023-04-09T01:31:38.990Z,2.40
2023-04-09T01:34:42.777Z,2.48
2023-04-09T01:37:45.832Z,2.50
2023-04-09T01:40:50.375Z,2.49
2023-04-09T01:43:54.309Z,2.42
2023-04-09T01:46:58.689Z,2.40
2023-04-09T01:50:01.939Z,2.38
2023-04-09T01:53:04.733Z,2.36
2023-04-09T01:56:09.148Z,2.31
2023-04-09T01:59:12.624Z,2.35
2023-04-09T02:02:23.891Z,2.41
2023-04-09T02:05:29.758Z,2.41
2023-04-09T02:08:35.174Z,2.45
2023-04-09T02:11:41.709Z,2.42
2023-04-09T02:14:47.241Z,2.31
2023-04-09T02:17:50.031Z,2.34
2023-04-09T02:20:52.889Z,2.32
2023-04-09T02:23:56.636Z,2.36
2023-04-09T02:27:00.353Z,2.34
2023-04-09T02:30:03.245Z,2.37
2023-04-09T02:33:05.973Z,2.42
2023-04-09T02:36:12.931Z,2.53
2023-04-09T02:39:16.382Z,2.54
2023-04-09T02:42:19.199Z,2.50
2023-04-09T02:45:22.441Z,2.52
2023-04-09T02:48:25.406Z,2.52
2023-04-09T02:51:28.289Z,2.49
2023-04-09T02:54:31.429Z,2.47
2023-04-09T02:57:34.434Z,2.37
2023-04-09T03:00:37.269Z,2.29
2023-04-09T03:03:42.674Z,2.26
2023-04-09T03:06:45.687Z,2.17
2023-04-09T03:09:49.834Z,2.17
2023-04-09T03:12:52.753Z,2.21
2023-04-09T03:15:55.495Z,2.13
2023-04-09T03:18:58.138Z,2.30
2023-04-09T03:22:00.803Z,2.20
2023-04-09T03:25:06.911Z,2.27
2023-04-09T03:28:10.994Z,2.18
2023-04-09T03:31:18.154Z,2.11
2023-04-09T03:34:22.042Z,2.12
2023-04-09T03:37:28.590Z,2.11
2023-04-09T03:40:31.969Z,2.06
2023-04-09T03:43:34.710Z,1.97
2023-04-09T03:46:37.717Z,2.01
2023-04-09T03:49:42.824Z,1.95
2023-04-09T03:52:53.789Z,2.02
2023-04-09T03:55:56.842Z,1.99
2023-04-09T03:59:02.028Z,1.97
2023-04-09T04:02:13.035Z,2.05
2023-04-09T04:05:24.917Z,1.96
2023-04-09T04:08:29.517Z,2.02
2023-04-09T04:11:34.316Z,1.92
2023-04-09T04:14:38.472Z,1.98
2023-04-09T04:17:52.084Z,1.92
2023-04-09T04:21:15.700Z,1.93
2023-04-09T04:24:22.774Z,1.89
2023-04-09T04:27:25.767Z,1.97
2023-04-09T04:30:30.760Z,1.96
2023-04-09T04:33:43.867Z,1.96
2023-04-09T04:36:50.148Z,2.04
2023-04-09T04:39:54.582Z,2.09
2023-04-09T04:42:57.973Z,2.15
2023-04-09T04:46:00.927Z,2.14
2023-04-09T04:49:06.715Z,2.16
2023-04-09T04:52:17.773Z,2.08
2023-04-09T04:55:25.869Z,2.03
2023-04-09T04:58:29.758Z,2.06
2023-04-09T05:01:36.454Z,2.02
2023-04-09T05:04:43.351Z,2.09
2023-04-09T05:07:49.444Z,2.15
2023-04-09T05:10:56.511Z,2.11
2023-04-09T05:14:07.051Z,2.10
2023-04-09T05:17:09.972Z,2.18
2023-04-09T05:20:21.174Z,2.13
2023-04-09T05:23:32.942Z,2.35
2023-04-09T05:26:36.248Z,2.29
2023-04-09T05:29:39.017Z,2.28
2023-04-09T05:32:47.071Z,2.28
2023-04-09T05:35:52.001Z,2.20
2023-04-09T05:38:55.493Z,2.29
2023-04-09T05:41:58.973Z,2.33
2023-04-09T05:45:20.444Z,2.26
2023-04-09T05:48:29.199Z,2.35
2023-04-09T05:51:33.016Z,2.34
2023-04-09T05:54:36.828Z,2.38
2023-04-09T05:57:42.578Z,2.54
2023-04-09T06:00:45.612Z,2.44
2023-04-09T06:03:48.522Z,2.47
2023-04-09T06:06:52.276Z,2.58
2023-04-09T06:09:56.676Z,2.56
2023-04-09T06:12:59.340Z,2.68
2023-04-09T06:16:04.934Z,2.78
2023-04-09T06:19:07.786Z,2.95
2023-04-09T06:22:11.630Z,2.98
2023-04-09T06:25:14.427Z,3.15
2023-04-09T06:28:17.317Z,3.11
2023-04-09T06:31:21.089Z,3.15
2023-04-09T06:34:24.071Z,3.33
2023-04-09T06:37:27.100Z,3.58
2023-04-09T06:40:30.172Z,3.52
2023-04-09T06:43:32.889Z,3.70
2023-04-09T06:46:35.705Z,3.85
2023-04-09T06:49:38.515Z,3.73
2023-04-09T06:52:41.894Z,3.84
2023-04-09T06:55:44.595Z,3.82
2023-04-09T06:58:47.891Z,3.77
2023-04-09T07:01:54.722Z,3.76
2023-04-09T07:04:57.631Z,3.91
2023-04-09T07:08:00.778Z,4.01
2023-04-09T07:11:03.972Z,4.12
2023-04-09T07:14:08.800Z,4.09
2023-04-09T07:17:11.841Z,4.14
2023-04-09T07:20:14.807Z,4.25
2023-04-09T07:23:17.707Z,4.41
2023-04-09T07:26:21.717Z,4.65
2023-04-09T07:29:24.630Z,4.73
2023-04-09T07:32:30.705Z,5.14
2023-04-09T07:35:35.070Z,5.19
2023-04-09T07:38:37.944Z,5.26
2023-04-09T07:41:41.065Z,5.48
2023-04-09T07:44:44.398Z,5.54
2023-04-09T07:47:47.512Z,6.06
2023-04-09T07:50:50.658Z,6.31
2023-04-09T07:53:53.567Z,6.35
2023-04-09T07:56:57.223Z,6.18
2023-04-09T08:00:07.851Z,6.20
2023-04-09T08:03:16.777Z,6.50
2023-04-09T08:06:20.241Z,6.79
2023-04-09T08:09:43.040Z,6.97
2023-04-09T08:12:46.440Z,6.90
2023-04-09T08:15:50.030Z,6.89
2023-04-09T08:18:53.594Z,7.12
2023-04-09T08:21:57.114Z,7.41
2023-04-09T08:25:02.557Z,7.63
2023-04-09T08:28:06.003Z,7.96
2023-04-09T08:31:10.173Z,8.05
2023-04-09T08:34:13.643Z,8.46
2023-04-09T08:37:18.151Z,8.61
2023-04-09T08:40:21.131Z,8.49
2023-04-09T08:43:33.693Z,8.80
2023-04-09T08:46:48.272Z,8.66
2023-04-09T08:49:54.576Z,8.84
2023-04-09T08:52:58.843Z,8.83
2023-04-09T08:56:01.938Z,8.36
2023-04-09T08:59:04.778Z,8.42
2023-04-09T09:02:12.250Z,8.65
2023-04-09T09:05:15.900Z,8.99
2023-04-09T09:08:26.228Z,8.91
2023-04-09T09:11:30.707Z,9.12
2023-04-09T09:14:33.628Z,9.93
2023-04-09T09:17:56.697Z,10.15
2023-04-09T09:21:16.717Z,10.06
2023-04-09T09:24:19.500Z,10.11
2023-04-09T09:27:43.605Z,9.58
2023-04-09T09:33:51.770Z,10.23
2023-04-09T09:36:54.713Z,10.68
2023-04-09T09:39:58.307Z,11.19
2023-04-09T09:43:01.240Z,11.55
2023-04-09T09:46:04.554Z,11.94
2023-04-09T09:49:08.183Z,12.21
2023-04-09T09:52:12.361Z,12.09
2023-04-09T09:55:17.019Z,11.89
2023-04-09T09:58:32.430Z,11.97
2023-04-09T10:01:38.422Z,12.35
2023-04-09T10:04:42.072Z,12.04
2023-04-09T10:07:45.492Z,12.30
2023-04-09T10:10:49.010Z,12.34
2023-04-09T10:13:57.974Z,12.27
2023-04-09T10:17:01.577Z,11.86
2023-04-09T10:20:18.685Z,12.01
2023-04-09T10:23:37.493Z,11.69
2023-04-09T10:26:41.518Z,12.54
2023-04-09T10:29:49.806Z,12.54
2023-04-09T10:32:53.606Z,12.68
2023-04-09T10:36:01.669Z,12.54
2023-04-09T10:39:12.916Z,12.40
2023-04-09T10:42:22.017Z,12.36
2023-04-09T10:45:26.697Z,12.81
2023-04-09T10:48:33.608Z,13.04
2023-04-09T10:51:39.165Z,12.28
2023-04-09T10:54:45.768Z,12.11
2023-04-09T10:57:51.483Z,11.86
2023-04-09T11:00:54.302Z,11.76
2023-04-09T11:04:10.731Z,12.31
2023-04-09T11:07:16.184Z,12.50
2023-04-09T11:10:21.016Z,12.51
2023-04-09T11:13:23.879Z,12.44
2023-04-09T11:16:29.023Z,12.55
2023-04-09T11:19:34.416Z,12.40
2023-04-09T11:22:38.938Z,12.52
2023-04-09T11:25:41.953Z,12.57
2023-04-09T11:28:44.653Z,12.47
2023-04-09T11:31:49.562Z,12.34
2023-04-09T11:34:53.427Z,12.09
2023-04-09T11:37:56.332Z,12.07
2023-04-09T11:40:58.996Z,12.12
2023-04-09T11:44:05.952Z,12.02
2023-04-09T11:47:13.317Z,11.98
2023-04-09T11:50:16.911Z,12.19
2023-04-09T11:53:21.471Z,12.31
2023-04-09T11:56:25.654Z,12.42
2023-04-09T11:59:29.023Z,12.29
2023-04-09T12:02:32.035Z,12.18
2023-04-09T12:05:35.973Z,12.34
2023-04-09T12:08:39.675Z,12.40
2023-04-09T12:11:46.533Z,12.50
2023-04-09T12:14:49.477Z,12.12
2023-04-09T12:17:59.954Z,12.76
2023-04-09T12:21:03.213Z,12.68
2023-04-09T12:24:06.149Z,12.31
2023-04-09T12:27:08.925Z,12.21
2023-04-09T12:30:11.888Z,12.15
2023-04-09T12:33:14.774Z,11.39
2023-04-09T12:36:17.749Z,10.93
2023-04-09T12:39:22.813Z,10.68
2023-04-09T12:42:26.053Z,10.50
2023-04-09T12:45:32.290Z,10.36
2023-04-09T12:48:35.587Z,9.95
2023-04-09T12:51:40.160Z,9.93
2023-04-09T12:54:45.409Z,9.89
2023-04-09T12:57:51.309Z,9.83
2023-04-09T13:00:54.784Z,9.70
2023-04-09T13:03:58.247Z,9.43
2023-04-09T13:07:01.658Z,9.42
2023-04-09T13:10:04.906Z,9.36
2023-04-09T13:13:12.353Z,9.44
2023-04-09T13:16:15.129Z,9.44
2023-04-09T13:19:18.301Z,9.49
2023-04-09T13:22:21.242Z,9.61
2023-04-09T13:25:24.219Z,9.60
2023-04-09T13:28:27.404Z,9.72
2023-04-09T13:31:31.137Z,9.69
2023-04-09T13:34:35.403Z,9.82
2023-04-09T13:37:38.701Z,9.87
2023-04-09T13:40:41.549Z,9.91
2023-04-09T13:43:45.598Z,9.99
2023-04-09T13:46:48.542Z,10.01
2023-04-09T13:49:53.366Z,10.02
2023-04-09T13:52:56.440Z,10.15
2023-04-09T13:55:59.416Z,10.22
2023-04-09T13:59:02.474Z,10.35
2023-04-09T14:02:07.263Z,10.56
2023-04-09T14:05:10.346Z,10.93
2023-04-09T14:08:13.201Z,11.08
2023-04-09T14:11:17.139Z,11.18
2023-04-09T14:14:20.360Z,11.25
2023-04-09T14:17:23.484Z,11.21
2023-04-09T14:20:26.631Z,11.31
2023-04-09T14:23:29.596Z,11.39
2023-04-09T14:26:32.409Z,11.39
2023-04-09T14:29:35.576Z,11.46
2023-04-09T14:32:38.577Z,11.28
2023-04-09T14:35:41.305Z,11.13
2023-04-09T14:38:46.537Z,11.07
2023-04-09T14:41:49.397Z,10.93
2023-04-09T14:44:52.098Z,10.86
2023-04-09T14:47:55.465Z,10.85
2023-04-09T14:50:58.836Z,10.99
2023-04-09T14:54:02.217Z,11.18
2023-04-09T14:57:07.503Z,11.24
2023-04-09T15:00:12.602Z,11.26
2023-04-09T15:03:15.704Z,11.28
2023-04-09T15:06:18.811Z,11.26
2023-04-09T15:09:21.625Z,11.25
2023-04-09T15:12:24.522Z,11.21
2023-04-09T15:15:27.346Z,11.23
2023-04-09T15:18:30.082Z,11.21
2023-04-09T15:21:33.203Z,11.16
2023-04-09T15:24:36.005Z,11.14
2023-04-09T15:27:38.940Z,11.14
2023-04-09T15:30:42.262Z,11.13
2023-04-09T15:33:45.793Z,11.16
2023-04-09T15:36:48.940Z,11.17
2023-04-09T15:39:51.979Z,11.03
2023-04-09T15:42:55.293Z,10.92
2023-04-09T15:45:58.101Z,10.76
2023-04-09T15:49:01.212Z,10.43
2023-04-09T15:52:04.343Z,10.26
2023-04-09T15:55:07.925Z,10.09
2023-04-09T15:58:10.745Z,10.19
2023-04-09T16:01:13.964Z,10.02
2023-04-09T16:04:17.258Z,9.95
2023-04-09T16:07:20.172Z,9.78
2023-04-09T16:10:23.131Z,9.89
2023-04-09T16:13:26.263Z,9.87
2023-04-09T16:16:29.286Z,9.77
2023-04-09T16:19:32.309Z,9.75
2023-04-09T16:22:35.137Z,9.49
2023-04-09T16:25:37.943Z,9.37
2023-04-09T16:28:40.717Z,9.40
2023-04-09T16:31:43.778Z,9.37
2023-04-09T16:34:47.682Z,9.30
2023-04-09T16:37:52.483Z,9.31
2023-04-09T16:40:55.675Z,9.35
2023-04-09T16:43:58.552Z,9.35
2023-04-09T16:47:03.060Z,9.24
2023-04-09T16:50:10.799Z,9.17
2023-04-09T16:53:14.147Z,9.22
2023-04-09T16:56:17.358Z,9.19
2023-04-09T16:59:21.609Z,9.18
2023-04-09T17:02:25.053Z,9.19
2023-04-09T17:05:28.334Z,9.16
2023-04-09T17:08:31.908Z,9.18
2023-04-09T17:11:35.492Z,9.18
2023-04-09T17:14:42.692Z,9.13
2023-04-09T17:17:48.869Z,8.98
2023-04-09T17:20:53.431Z,8.93
2023-04-09T17:23:57.057Z,8.86
2023-04-09T17:27:00.820Z,8.78
2023-04-09T17:30:06.937Z,8.73
2023-04-09T17:33:12.219Z,8.65
2023-04-09T17:36:20.515Z,8.64
2023-04-09T17:39:29.825Z,8.56
2023-04-09T17:42:35.059Z,8.45
2023-04-09T17:45:39.004Z,8.35
2023-04-09T17:48:43.643Z,8.26
2023-04-09T17:51:47.731Z,8.15
2023-04-09T17:54:51.943Z,8.04
2023-04-09T17:57:55.251Z,7.95
2023-04-09T18:01:00.199Z,7.90
2023-04-09T18:04:03.898Z,7.78
2023-04-09T18:07:07.470Z,7.73
2023-04-09T18:10:12.743Z,7.64
2023-04-09T18:13:16.148Z,7.54
2023-04-09T18:16:21.371Z,7.33
2023-04-09T18:19:24.822Z,7.38
2023-04-09T18:22:27.881Z,7.41
2023-04-09T18:25:31.017Z,7.24
2023-04-09T18:28:35.420Z,7.18
2023-04-09T18:31:38.355Z,7.05
2023-04-09T18:34:41.650Z,6.98
2023-04-09T18:37:45.119Z,6.94
2023-04-09T18:40:48.242Z,6.85
2023-04-09T18:43:51.655Z,6.88
2023-04-09T18:46:54.482Z,6.89
2023-04-09T18:49:57.941Z,6.90
2023-04-09T18:53:01.240Z,6.90
2023-04-09T18:56:04.374Z,6.91
2023-04-09T18:59:07.204Z,6.91
2023-04-09T19:02:10.310Z,6.91
2023-04-09T19:05:13.139Z,7.03
2023-04-09T19:08:16.975Z,7.06
2023-04-09T19:11:19.912Z,7.00
2023-04-09T19:14:22.632Z,7.11
2023-04-09T19:17:25.959Z,7.12
2023-04-09T19:20:29.329Z,7.18
2023-04-09T19:23:34.552Z,7.15
2023-04-09T19:26:37.938Z,7.20
2023-04-09T19:29:40.795Z,7.17
2023-04-09T19:32:48.153Z,7.15
2023-04-09T19:35:52.483Z,7.16
2023-04-09T19:38:55.597Z,7.14
2023-04-09T19:41:58.961Z,7.13
2023-04-09T19:45:02.048Z,7.04
2023-04-09T19:48:08.242Z,7.12
2023-04-09T19:51:18.257Z,7.10
2023-04-09T19:54:23.312Z,7.10
2023-04-09T19:57:26.933Z,7.10
2023-04-09T20:00:29.983Z,7.07
2023-04-09T20:03:33.714Z,7.09
2023-04-09T20:06:36.536Z,7.08
2023-04-09T20:09:41.755Z,7.02
2023-04-09T20:12:47.828Z,7.00
2023-04-09T20:15:50.547Z,6.99
2023-04-09T20:18:53.757Z,6.98
2023-04-09T20:21:57.445Z,6.96
2023-04-09T20:25:01.010Z,6.98
2023-04-09T20:28:04.657Z,6.96
2023-04-09T20:31:10.890Z,7.00
2023-04-09T20:34:13.855Z,6.97
2023-04-09T20:37:16.862Z,6.99
2023-04-09T20:40:22.605Z,7.02
2023-04-09T20:43:25.282Z,6.98
2023-04-09T20:46:28.235Z,7.02
2023-04-09T20:49:31.289Z,6.98
2023-04-09T20:52:34.058Z,7.06
2023-04-09T20:55:37.674Z,6.96
2023-04-09T20:58:40.548Z,6.86
2023-04-09T21:01:43.601Z,6.80
2023-04-09T21:04:46.922Z,6.83
2023-04-09T21:07:50.058Z,6.64
2023-04-09T21:10:53.393Z,6.62
2023-04-09T21:13:56.347Z,6.60
2023-04-09T21:17:01.488Z,6.62
2023-04-09T21:20:04.878Z,6.58
2023-04-09T21:23:07.711Z,6.53
2023-04-09T21:26:13.550Z,6.56
2023-04-09T21:29:16.217Z,6.50
2023-04-09T21:32:19.020Z,6.49
2023-04-09T21:35:22.092Z,6.37
2023-04-09T21:38:24.972Z,6.33
2023-04-09T21:41:27.742Z,6.21
2023-04-09T21:44:30.839Z,6.06
2023-04-09T21:47:33.876Z,6.01
2023-04-09T21:50:38.928Z,6.00
2023-04-09T21:53:41.851Z,5.86
2023-04-09T21:56:44.679Z,5.96
2023-04-09T21:59:49.492Z,6.15
2023-04-09T22:02:52.491Z,6.26
2023-04-09T22:05:55.511Z,6.06
2023-04-09T22:08:58.788Z,6.06
2023-04-09T22:12:03.110Z,6.01
2023-04-09T22:15:07.122Z,5.97
2023-04-09T22:18:09.860Z,6.03
2023-04-09T22:21:16.462Z,5.99
2023-04-09T22:24:19.651Z,5.92
2023-04-09T22:27:22.576Z,5.94
2023-04-09T22:30:25.264Z,5.88
2023-04-09T22:33:28.295Z,5.86
2023-04-09T22:36:32.202Z,5.80
2023-04-09T22:39:35.017Z,5.61
2023-04-09T22:42:37.772Z,5.55
2023-04-09T22:45:40.400Z,5.52
2023-04-09T22:48:45.011Z,5.34
2023-04-09T22:51:48.745Z,5.32
2023-04-09T22:54:51.731Z,5.32
2023-04-09T22:57:55.330Z,5.26
2023-04-09T23:00:58.527Z,5.12
2023-04-09T23:04:02.218Z,5.12
2023-04-09T23:07:05.137Z,5.17
2023-04-09T23:10:08.237Z,5.10
2023-04-09T23:13:14.252Z,5.04
2023-04-09T23:16:17.452Z,5.00
2023-04-09T23:19:20.232Z,5.02
2023-04-09T23:22:24.644Z,5.02
2023-04-09T23:25:27.362Z,4.94
2023-04-09T23:28:30.607Z,5.00
2023-04-09T23:31:33.278Z,4.97
2023-04-09T23:34:36.002Z,4.97
2023-04-09T23:37:42.773Z,4.84
2023-04-09T23:40:47.581Z,4.68
2023-04-09T23:43:51.551Z,4.54
2023-04-09T23:46:54.453Z,4.46
2023-04-09T23:49:57.253Z,4.39
2023-04-09T23:53:03.698Z,4.37
2023-04-09T23:56:06.828Z,4.30
2023-04-09T23:59:09.638Z,4.36
